Time;durP1;ratioP1;P1;durP2;ratioP2;P2;SDS_P1;SDS_P2;PMS_P1;PMS_P2;Temp;Humidity;BMP_temperature;BMP_pressure;BME280_temperature;BME280_humidity;BME280_pressure;Samples;Min_cycle;Max_cycle;Signal;HPM_P1;HPM_P2
2022/01/24 00:00:51;;;;;;;10.63;5.10;;;;;;;11.67;61.72;102959.03;6035031;23;119891;-86
2022/01/24 00:03:17;;;;;;;9.05;5.15;;;;;;;11.67;61.44;102959.03;6040105;23;119823;-86
2022/01/24 00:05:43;;;;;;;9.77;5.40;;;;;;;11.67;61.42;102967.28;5986789;23;123299;-86
2022/01/24 00:08:08;;;;;;;10.65;5.22;;;;;;;11.60;61.35;102952.81;6011608;23;119875;-85
2022/01/24 00:10:37;;;;;;;9.45;5.28;;;;;;;11.65;61.30;102955.91;6036287;23;121497;-86
2022/01/24 00:13:35;;;;;;;8.70;5.03;;;;;;;11.64;61.50;102959.84;6010511;23;120229;-85
2022/01/24 00:16:16;;;;;;;8.05;4.80;;;;;;;11.61;61.34;102949.66;6059214;23;120091;-84
2022/01/24 00:26:50;;;;;;;12.05;6.05;;;;;;;11.61;61.57;102954.38;6039607;23;119611;-86
2022/01/24 00:29:19;;;;;;;13.68;6.10;;;;;;;11.67;61.88;102956.28;6035654;23;119919;-85
2022/01/24 00:31:46;;;;;;;10.07;6.60;;;;;;;11.67;61.94;102961.78;5986235;23;121922;-84
2022/01/24 00:34:12;;;;;;;11.63;6.45;;;;;;;11.65;61.77;102953.16;5986907;23;123766;-85
2022/01/24 00:36:39;;;;;;;13.95;6.57;;;;;;;11.68;61.83;102952.34;6035622;23;119975;-84
2022/01/24 00:39:06;;;;;;;12.57;6.57;;;;;;;11.64;61.93;102942.56;6033225;23;119970;-83
2022/01/24 00:41:41;;;;;;;11.55;6.60;;;;;;;11.51;61.86;102928.50;6060339;23;119984;-83
2022/01/24 00:46:57;;;;;;;;;;;;;;;11.61;62.33;102948.88;6063676;23;119749;-85
2022/01/24 00:49:46;;;;;;;12.40;7.28;;;;;;;11.54;62.33;102929.66;6067110;23;120390;-83
2022/01/24 00:55:01;;;;;;;16.60;8.90;;;;;;;11.58;62.29;102952.41;6036922;23;123690;-82
2022/01/24 00:57:27;;;;;;;16.02;8.60;;;;;;;11.56;62.04;102943.78;6062208;23;120037;-82
2022/01/24 00:59:52;;;;;;;13.45;9.20;;;;;;;11.57;61.98;102950.84;6012632;23;121775;-82
2022/01/24 01:02:19;;;;;;;17.75;10.35;;;;;;;11.60;62.13;102959.09;6010951;23;122628;-82
2022/01/24 01:18:14;;;;;;;;;;;;;;;11.54;62.29;102952.44;6037200;23;120076;-87
2022/01/24 01:23:31;;;;;;;22.17;12.85;;;;;;;11.43;62.49;102935.22;6033351;23;123168;-86
2022/01/24 01:26:03;;;;;;;24.23;12.70;;;;;;;11.54;62.99;102957.16;6038116;23;119764;-86
2022/01/24 01:28:30;;;;;;;19.05;12.55;;;;;;;11.50;63.04;102956.38;6064761;23;119558;-85
2022/01/24 01:31:04;;;;;;;19.63;11.75;;;;;;;11.53;62.67;102961.84;6037609;23;122126;-86
2022/01/24 01:36:08;;;;;;;20.80;12.15;;;;;;;11.46;63.11;102950.91;6038019;23;122709;-88
2022/01/24 01:52:48;;;;;;;14.50;10.80;;;;;;;11.48;63.09;102947.75;6037250;23;121637;-88
2022/01/24 01:58:11;;;;;;;17.05;10.50;;;;;;;11.43;62.65;102926.19;5999251;23;121979;-87
2022/01/24 02:00:41;;;;;;;18.08;11.23;;;;;;;11.49;62.90;102928.13;5990090;23;119678;-86
2022/01/24 02:03:09;;;;;;;20.73;10.70;;;;;;;11.50;62.58;102935.19;6038071;23;122354;-85
2022/01/24 02:05:36;;;;;;;16.98;10.75;;;;;;;11.50;63.14;102945.41;6037378;23;122547;-87
2022/01/24 02:08:03;;;;;;;20.67;11.05;;;;;;;11.43;62.81;102932.47;6037872;23;119818;-87
2022/01/24 02:10:29;;;;;;;16.58;10.93;;;;;;;11.50;62.91;102937.16;6014025;23;119403;-87
2022/01/24 02:12:56;;;;;;;15.32;10.15;;;;;;;11.50;62.98;102939.91;6037000;23;123214;-84
2022/01/24 02:15:41;;;;;;;16.55;10.60;;;;;;;11.53;62.75;102945.38;6038938;23;119813;-84
2022/01/24 02:18:22;;;;;;;19.52;10.63;;;;;;;11.52;62.85;102941.06;6038489;23;119669;-85
2022/01/24 02:25:49;;;;;;;16.77;10.57;;;;;;;11.49;62.62;102947.34;6036956;23;121275;-84
2022/01/24 02:28:17;;;;;;;17.88;10.27;;;;;;;11.50;63.09;102939.91;6037146;23;120121;-86
2022/01/24 02:33:20;;;;;;;18.42;10.68;;;;;;;11.41;62.70;102928.56;6036196;23;120222;-85
2022/01/24 02:35:46;;;;;;;16.15;10.55;;;;;;;11.47;62.67;102937.94;6036693;23;119493;-85
2022/01/24 02:38:46;;;;;;;17.25;10.43;;;;;;;11.34;62.74;102921.13;6037390;23;122807;-86
2022/01/24 02:49:13;;;;;;;21.17;10.73;;;;;;;11.45;62.92;102930.09;6038255;23;119666;-88
2022/01/24 02:54:06;;;;;;;20.58;11.70;;;;;;;11.46;62.88;102928.94;6036993;23;119849;-86
2022/01/24 02:56:31;;;;;;;24.10;11.52;;;;;;;11.42;63.03;102919.94;6038323;23;120427;-86
2022/01/24 02:58:57;;;;;;;23.55;11.20;;;;;;;11.47;63.11;102924.22;6064262;23;119664;-87
2022/01/24 03:01:22;;;;;;;21.98;11.65;;;;;;;11.46;63.22;102911.66;5989096;23;121603;-86
2022/01/24 03:03:48;;;;;;;24.27;11.10;;;;;;;11.48;63.68;102912.81;6038019;23;120254;-86
2022/01/24 03:06:13;;;;;;;19.95;11.43;;;;;;;11.53;63.21;102917.88;6017361;23;119469;-87
2022/01/24 03:08:41;;;;;;;22.40;12.15;;;;;;;11.58;62.97;102914.69;5989504;23;120088;-87
2022/01/24 03:11:07;;;;;;;18.90;11.15;;;;;;;11.61;62.88;102915.88;6013598;23;119597;-87
2022/01/24 03:13:33;;;;;;;24.30;11.60;;;;;;;11.63;62.75;102919.00;6063398;23;120106;-88
2022/01/24 03:16:02;;;;;;;22.05;11.52;;;;;;;11.58;62.67;102917.44;6037862;23;119626;-87
2022/01/24 03:18:28;;;;;;;24.58;11.45;;;;;;;11.64;63.14;102923.31;6063211;23;119697;-87
2022/01/24 03:20:54;;;;;;;21.73;10.88;;;;;;;11.57;63.32;102915.88;6060105;23;122803;-82
2022/01/24 03:23:23;;;;;;;25.20;11.43;;;;;;;11.66;62.81;102929.97;6036343;23;120008;-86
2022/01/24 03:25:49;;;;;;;21.55;11.50;;;;;;;11.66;62.51;102929.97;5992713;23;122724;-83
2022/01/24 03:28:17;;;;;;;21.23;11.20;;;;;;;11.61;62.49;102916.66;6036306;23;119597;-85
2022/01/24 03:30:47;;;;;;;21.17;10.65;;;;;;;11.58;63.12;102909.19;6036782;23;122032;-87
2022/01/24 03:33:13;;;;;;;22.05;10.65;;;;;;;11.65;62.41;102920.16;6035589;23;122526;-85
2022/01/24 03:35:43;;;;;;;23.95;10.75;;;;;;;11.63;62.41;102911.53;6012803;23;119552;-85
2022/01/24 03:38:09;;;;;;;19.65;10.95;;;;;;;11.65;62.17;102909.16;6037995;23;121739;-85
2022/01/24 03:40:35;;;;;;;23.58;11.65;;;;;;;11.59;62.63;102899.78;6037314;23;121431;-83
2022/01/24 03:43:00;;;;;;;17.17;10.35;;;;;;;11.63;62.60;102900.53;6037306;23;119734;-87
2022/01/24 03:45:39;;;;;;;19.65;11.13;;;;;;;11.61;62.53;102896.63;5989584;23;121929;-87
2022/01/24 03:50:51;;;;;;;22.35;10.90;;;;;;;11.71;62.60;102892.25;6063998;23;119566;-87
2022/01/24 03:53:17;;;;;;;23.67;10.18;;;;;;;11.67;62.45;102895.03;6012334;23;123132;-86
2022/01/24 03:55:42;;;;;;;17.00;8.73;;;;;;;11.71;62.50;102906.78;6038206;23;119570;-85
2022/01/24 03:58:08;;;;;;;18.30;8.90;;;;;;;11.69;62.37;102909.16;6013707;23;119363;-86
2022/01/24 04:00:34;;;;;;;18.48;9.02;;;;;;;11.74;62.23;102911.47;5989312;23;122853;-87
2022/01/24 04:02:59;;;;;;;18.88;8.85;;;;;;;11.74;62.01;102907.94;6012972;23;120267;-87
2022/01/24 04:05:25;;;;;;;18.00;7.55;;;;;;;11.79;62.25;102913.00;6064020;23;119749;-86
2022/01/24 04:07:50;;;;;;;18.00;8.13;;;;;;;11.82;61.94;102906.69;6013038;23;119646;-88
2022/01/24 04:10:19;;;;;;;15.50;7.60;;;;;;;11.84;62.44;102912.59;6043002;23;119548;-86
2022/01/24 04:12:45;;;;;;;19.17;7.55;;;;;;;11.85;62.05;102906.69;6036033;23;122804;-87
2022/01/24 04:15:25;;;;;;;15.98;7.13;;;;;;;11.87;61.62;102900.78;6013540;23;119612;-86
2022/01/24 04:18:08;;;;;;;18.15;7.32;;;;;;;11.89;61.91;102906.66;6037950;23;122147;-86
2022/01/24 04:23:19;;;;;;;17.23;7.93;;;;;;;11.90;61.19;102910.97;6064227;23;119753;-85
2022/01/24 04:25:45;;;;;;;17.40;8.10;;;;;;;11.90;61.64;102908.22;6014487;23;120053;-84
2022/01/24 04:28:11;;;;;;;13.13;7.28;;;;;;;11.84;61.83;102915.34;6038384;23;120063;-86
2022/01/24 04:30:36;;;;;;;19.55;8.02;;;;;;;11.84;61.80;102901.59;5990629;23;119705;-85
2022/01/24 04:33:02;;;;;;;19.35;8.05;;;;;;;11.79;61.70;102897.31;6042499;23;121918;-88
2022/01/24 04:35:27;;;;;;;21.30;8.27;;;;;;;11.83;61.70;102908.28;6038957;23;119545;-86
2022/01/24 04:37:53;;;;;;;15.45;7.70;;;;;;;11.79;61.47;102897.31;6014546;23;119434;-86
2022/01/24 04:40:19;;;;;;;15.82;8.02;;;;;;;11.88;61.42;102918.84;6038249;23;119841;-87
2022/01/24 04:42:55;;;;;;;17.30;8.27;;;;;;;11.85;61.24;102909.44;5990255;23;119893;-86
2022/01/24 04:53:08;;;;;;;18.70;8.68;;;;;;;11.79;61.72;102897.31;6013898;23;122491;-86
2022/01/24 04:55:36;;;;;;;18.58;8.65;;;;;;;11.84;61.35;102904.34;6019823;23;120194;-86
2022/01/24 04:58:02;;;;;;;16.20;8.30;;;;;;;11.71;61.81;102881.25;5990753;23;122839;-85
2022/01/24 05:00:28;;;;;;;16.58;8.43;;;;;;;11.73;61.83;102887.91;6064470;23;119938;-86
2022/01/24 05:02:53;;;;;;;18.27;9.02;;;;;;;11.82;61.48;102903.97;6013554;23;119637;-86
2022/01/24 05:05:21;;;;;;;21.50;9.45;;;;;;;11.75;61.75;102895.75;6038374;23;120588;-85
2022/01/24 05:07:48;;;;;;;21.23;9.23;;;;;;;11.73;61.88;102892.63;6037827;23;120938;-84
2022/01/24 05:23:44;;;;;;;20.13;9.43;;;;;;;11.66;62.24;102910.72;5977817;23;119771;-87
2022/01/24 05:26:10;;;;;;;20.65;10.80;;;;;;;11.69;62.23;102907.19;5978219;23;121839;-86
2022/01/24 05:28:37;;;;;;;19.52;10.43;;;;;;;11.71;62.21;102914.22;5981773;23;123431;-85
2022/01/24 05:31:04;;;;;;;24.45;12.13;;;;;;;11.65;62.61;102898.19;6037555;23;119444;-85
2022/01/24 05:33:30;;;;;;;23.00;11.63;;;;;;;11.67;62.51;102903.28;5989383;23;122234;-84
2022/01/24 05:35:59;;;;;;;20.35;11.27;;;;;;;11.65;62.57;102897.41;6037523;23;119851;-86
2022/01/24 05:38:25;;;;;;;24.70;12.50;;;;;;;11.64;62.84;102912.31;5995132;23;119795;-88
2022/01/24 05:40:50;;;;;;;20.00;11.48;;;;;;;11.59;62.85;102897.06;6013513;23;122472;-85
2022/01/24 05:43:16;;;;;;;21.25;12.65;;;;;;;11.56;63.00;102892.34;6037755;23;119643;-85
2022/01/24 05:45:42;;;;;;;23.60;11.48;;;;;;;11.69;63.13;102909.16;6038771;23;119708;-86
2022/01/24 05:48:08;;;;;;;25.48;13.40;;;;;;;11.70;62.79;102913.44;6013469;23;119695;-84
2022/01/24 05:50:34;;;;;;;21.80;13.00;;;;;;;11.68;62.79;102908.38;6038681;23;119566;-85
2022/01/24 05:53:00;;;;;;;19.38;12.18;;;;;;;11.65;62.79;102908.38;6037952;23;122320;-84
2022/01/24 05:55:25;;;;;;;25.25;13.05;;;;;;;11.69;62.87;102911.91;5989485;23;123066;-86
2022/01/24 05:57:54;;;;;;;26.65;14.18;;;;;;;11.71;63.03;102914.22;6038525;23;119529;-86
2022/01/24 06:00:21;;;;;;;23.45;12.82;;;;;;;11.69;62.75;102918.16;5994572;23;122312;-87
2022/01/24 06:02:47;;;;;;;23.80;13.07;;;;;;;11.67;62.88;102911.53;6013747;23;119452;-86
2022/01/24 06:05:12;;;;;;;26.15;14.00;;;;;;;11.71;63.13;102922.47;6038615;23;119325;-84
2022/01/24 06:07:38;;;;;;;25.52;13.70;;;;;;;11.68;62.89;102913.06;5989060;23;123244;-86
2022/01/24 06:10:05;;;;;;;24.50;13.65;;;;;;;11.70;62.84;102921.69;6038255;23;119791;-87
2022/01/24 06:12:31;;;;;;;26.45;14.60;;;;;;;11.61;63.13;102908.41;5989386;23;122360;-87
2022/01/24 06:14:57;;;;;;;25.33;14.48;;;;;;;11.61;63.16;102897.44;6037706;23;120021;-87
2022/01/24 06:17:22;;;;;;;21.95;14.50;;;;;;;11.60;62.97;102895.84;6038275;23;119838;-84
2022/01/24 06:19:48;;;;;;;26.27;14.90;;;;;;;11.58;63.49;102900.94;6038414;23;121668;-85
2022/01/24 06:22:14;;;;;;;27.58;15.65;;;;;;;11.59;63.15;102901.72;6041286;23;122643;-86
2022/01/24 06:24:39;;;;;;;27.08;14.75;;;;;;;11.58;62.93;102914.69;6014608;23;119925;-84
2022/01/24 06:27:05;;;;;;;24.60;14.32;;;;;;;11.61;63.27;102910.38;6037423;23;123150;-86
2022/01/24 06:29:31;;;;;;;26.95;15.23;;;;;;;11.62;63.13;102900.97;6038248;23;119956;-87
2022/01/24 06:31:58;;;;;;;32.50;15.90;;;;;;;11.60;63.15;102909.59;6013560;23;119729;-85
2022/01/24 06:34:25;;;;;;;25.88;15.65;;;;;;;11.65;62.98;102919.38;6037338;23;123204;-85
2022/01/24 06:36:50;;;;;;;22.95;15.45;;;;;;;11.60;62.62;102917.06;6038353;23;119739;-86
2022/01/24 06:39:16;;;;;;;27.20;15.68;;;;;;;11.63;63.07;102925.28;6038080;23;121996;-86
2022/01/24 06:41:43;;;;;;;28.38;16.50;;;;;;;11.52;63.11;102910.81;6037088;23;123163;-87
2022/01/24 06:44:09;;;;;;;28.65;16.63;;;;;;;11.57;63.11;102929.63;6042995;23;119738;-88
2022/01/24 06:46:35;;;;;;;25.10;15.95;;;;;;;11.57;63.06;102915.88;6013371;23;119915;-86
2022/01/24 06:49:00;;;;;;;26.20;16.17;;;;;;;11.51;63.43;102912.00;5990064;23;119904;-87
2022/01/24 06:51:27;;;;;;;26.42;16.58;;;;;;;11.58;63.22;102924.91;6038081;23;121700;-86
2022/01/24 06:53:53;;;;;;;28.23;15.77;;;;;;;11.53;63.27;102922.59;6036756;23;122443;-86
2022/01/24 06:56:19;;;;;;;25.90;16.85;;;;;;;11.58;63.24;102925.69;6064412;23;119621;-86
2022/01/24 06:58:44;;;;;;;29.23;16.33;;;;;;;11.57;63.34;102928.84;5990167;23;120262;-86
2022/01/24 07:01:10;;;;;;;28.02;17.55;;;;;;;11.59;63.10;102938.28;6037283;23;122344;-86
2022/01/24 07:03:36;;;;;;;24.48;16.02;;;;;;;11.56;63.29;102936.31;6037711;23;119807;-86
2022/01/24 07:06:02;;;;;;;29.52;18.13;;;;;;;11.48;64.04;102932.06;5994040;23;121824;-86
2022/01/24 07:08:28;;;;;;;27.55;17.05;;;;;;;11.51;63.51;102938.72;6061576;23;119700;-86
2022/01/24 07:10:53;;;;;;;26.45;17.00;;;;;;;11.49;63.22;102944.59;5989989;23;122287;-84
2022/01/24 07:13:21;;;;;;;26.58;16.67;;;;;;;11.44;63.66;102931.28;6036931;23;119839;-86
2022/01/24 07:15:51;;;;;;;28.48;16.10;;;;;;;11.52;63.39;102948.53;6038022;23;119906;-86
2022/01/24 07:18:59;;;;;;;28.98;16.27;;;;;;;11.57;63.20;102945.34;5989968;23;122763;-88
2022/01/24 07:21:07;;;;;;;28.23;16.85;;;;;;;11.53;63.26;102939.09;6024964;23;123341;-85
2022/01/24 07:23:33;;;;;;;25.85;16.85;;;;;;;11.52;62.75;102946.56;5989557;23;119409;-85
2022/01/24 07:25:59;;;;;;;31.05;16.17;;;;;;;11.49;63.02;102930.09;6041931;23;122248;-85
2022/01/24 07:28:25;;;;;;;29.15;16.10;;;;;;;11.50;63.00;102932.44;6038304;23;119894;-86
2022/01/24 07:30:50;;;;;;;23.08;14.57;;;;;;;11.54;63.24;102941.44;6038194;23;119702;-86
2022/01/24 07:33:16;;;;;;;23.85;15.18;;;;;;;11.53;62.79;102931.63;5988513;23;122247;-86
2022/01/24 07:35:45;;;;;;;22.33;14.68;;;;;;;11.53;62.31;102934.38;6037837;23;119546;-86
2022/01/24 07:38:11;;;;;;;27.60;14.52;;;;;;;11.52;61.93;102930.06;6037497;23;122464;-87
2022/01/24 07:40:41;;;;;;;24.17;15.13;;;;;;;11.47;61.59;102913.22;6036321;23;123069;-86
2022/01/24 07:43:11;;;;;;;26.83;15.52;;;;;;;11.46;61.65;102920.69;6037162;23;119538;-87
2022/01/24 07:45:38;;;;;;;24.88;15.77;;;;;;;11.46;61.84;102911.66;6013905;23;119810;-88
2022/01/24 07:48:05;;;;;;;26.33;16.13;;;;;;;11.47;61.83;102925.00;6041654;23;123068;-88
2022/01/24 07:50:32;;;;;;;26.67;15.75;;;;;;;11.47;61.48;102922.25;6038294;23;119608;-87
2022/01/24 07:52:59;;;;;;;26.85;15.63;;;;;;;11.38;62.23;102902.69;6062828;23;119971;-87
2022/01/24 07:55:27;;;;;;;23.95;14.60;;;;;;;11.46;61.72;102914.41;6037410;23;119693;-86
2022/01/24 07:57:53;;;;;;;26.63;15.65;;;;;;;11.42;61.94;102899.91;6013345;23;119514;-86
2022/01/24 08:00:19;;;;;;;23.05;14.48;;;;;;;11.42;61.94;102906.19;6037329;23;119748;-86
2022/01/24 08:02:46;;;;;;;24.13;13.80;;;;;;;11.39;61.58;102909.75;6036199;23;119448;-86
2022/01/24 08:05:14;;;;;;;25.25;14.60;;;;;;;11.45;61.60;102910.88;6038078;23;119462;-87
2022/01/24 08:07:42;;;;;;;22.38;12.85;;;;;;;11.46;61.36;102915.19;5988158;23;123134;-85
2022/01/24 08:10:09;;;;;;;18.08;12.18;;;;;;;11.51;61.10;102923.00;6042602;23;120182;-84
2022/01/24 08:12:35;;;;;;;20.35;12.43;;;;;;;11.45;61.20;102921.88;6035679;23;123137;-86
2022/01/24 08:15:05;;;;;;;20.80;12.23;;;;;;;11.46;60.65;102915.19;6037061;23;119869;-86
2022/01/24 08:17:31;;;;;;;23.20;12.27;;;;;;;11.50;60.92;102928.91;6036166;23;121788;-84
2022/01/24 08:19:57;;;;;;;23.38;12.25;;;;;;;11.47;60.74;102926.97;6012266;23;122405;-85
2022/01/24 08:22:23;;;;;;;18.17;10.45;;;;;;;11.53;61.35;102928.88;6035986;23;119938;-86
2022/01/24 08:24:52;;;;;;;20.30;11.52;;;;;;;11.55;61.05;102933.97;6036882;23;122179;-86
2022/01/24 08:27:18;;;;;;;20.55;11.20;;;;;;;11.53;61.00;102928.88;6011178;23;123034;-84
2022/01/24 08:29:47;;;;;;;18.75;10.30;;;;;;;11.55;60.40;102940.25;6037495;23;120111;-84
2022/01/24 08:32:13;;;;;;;20.50;10.80;;;;;;;11.49;60.93;102922.63;5992540;23;122368;-87
2022/01/24 08:34:39;;;;;;;18.20;9.98;;;;;;;11.53;60.00;102934.38;6037396;23;119577;-87
2022/01/24 08:37:05;;;;;;;21.63;10.43;;;;;;;11.49;60.36;102925.38;6063217;23;119554;-87
2022/01/24 08:39:31;;;;;;;17.73;10.23;;;;;;;11.56;60.82;102932.78;5988382;23;121254;-85
2022/01/24 08:42:25;;;;;;;14.55;10.00;;;;;;;11.46;60.15;102920.69;6011874;23;119624;-86
2022/01/24 08:47:29;;;;;;;18.27;10.45;;;;;;;11.53;59.99;102923.38;6033091;23;122986;-85
2022/01/24 08:49:56;;;;;;;18.77;10.88;;;;;;;11.59;59.65;102926.47;6034573;23;120195;-86
2022/01/24 08:52:22;;;;;;;21.27;11.25;;;;;;;11.55;59.60;102934.75;6033986;23;119599;-86
2022/01/24 08:54:48;;;;;;;20.05;11.85;;;;;;;11.57;60.13;102934.34;6013840;23;120389;-87
2022/01/24 08:57:14;;;;;;;18.48;11.60;;;;;;;11.51;59.81;102922.22;6034444;23;119805;-84
2022/01/24 08:59:40;;;;;;;20.27;12.82;;;;;;;11.57;60.07;102934.34;5984892;23;122072;-87
2022/01/24 09:02:06;;;;;;;20.13;13.25;;;;;;;11.57;60.04;102935.13;6033292;23;119954;-85
2022/01/24 09:04:32;;;;;;;17.23;12.30;;;;;;;11.56;59.89;102936.31;6034851;23;119866;-87
2022/01/24 09:07:03;;;;;;;18.42;11.90;;;;;;;11.61;59.61;102940.63;5984924;23;123240;-85
2022/01/24 09:09:28;;;;;;;18.33;12.65;;;;;;;11.57;59.51;102937.09;5986906;23;119790;-89
2022/01/24 09:11:54;;;;;;;22.00;13.20;;;;;;;11.57;59.57;102934.34;6011362;23;121727;-87
2022/01/24 09:14:19;;;;;;;18.23;11.90;;;;;;;11.56;59.50;102932.78;6035536;23;120907;-87
2022/01/24 09:16:46;;;;;;;20.98;12.85;;;;;;;11.58;59.44;102924.91;5992641;23;120128;-87
2022/01/24 09:19:12;;;;;;;19.83;12.82;;;;;;;11.65;59.95;102941.38;6011208;23;119757;-86
2022/01/24 09:21:40;;;;;;;19.40;12.80;;;;;;;11.60;60.20;102917.84;6034997;23;119784;-87
2022/01/24 09:24:06;;;;;;;21.08;13.05;;;;;;;11.72;59.78;102932.28;5987647;23;121736;-88
2022/01/24 09:26:32;;;;;;;19.00;13.35;;;;;;;11.67;59.79;102917.78;6034185;23;123255;-84
2022/01/24 09:28:59;;;;;;;21.10;13.48;;;;;;;11.68;59.50;102924.84;6061743;23;119996;-86
2022/01/24 09:31:25;;;;;;;17.77;12.50;;;;;;;11.60;60.02;102915.09;6011704;23;119625;-86
2022/01/24 09:33:52;;;;;;;17.27;12.43;;;;;;;11.70;62.06;102927.19;6035071;23;119870;-86
2022/01/24 09:36:18;;;;;;;21.98;12.90;;;;;;;11.74;60.52;102927.16;6040379;23;120189;-85
2022/01/24 09:38:44;;;;;;;20.90;11.98;;;;;;;11.72;59.74;102930.31;5986811;23;123395;-87
2022/01/24 09:41:13;;;;;;;21.38;13.65;;;;;;;11.65;61.72;102914.66;6036047;23;120018;-86
2022/01/24 09:43:39;;;;;;;18.23;13.85;;;;;;;11.73;60.89;102925.63;6035133;23;121568;-85
2022/01/24 09:46:05;;;;;;;22.23;13.35;;;;;;;11.73;60.28;102915.38;6034911;23;123004;-85
2022/01/24 09:48:31;;;;;;;19.08;13.60;;;;;;;11.75;59.79;102923.25;6036261;23;119773;-87
2022/01/24 09:50:57;;;;;;;17.40;13.13;;;;;;;11.69;60.20;102917.38;6034870;23;122148;-87
2022/01/24 09:53:24;;;;;;;19.52;13.23;;;;;;;11.77;60.96;102931.84;6034127;23;122639;-87
2022/01/24 09:55:51;;;;;;;19.88;12.82;;;;;;;11.77;59.94;102923.63;6009619;23;119961;-86
2022/01/24 09:58:18;;;;;;;18.60;13.75;;;;;;;11.73;59.95;102922.88;6040295;23;122673;-86
2022/01/24 10:00:44;;;;;;;19.83;12.68;;;;;;;11.69;59.66;102920.13;6062276;23;120024;-87
2022/01/24 10:03:12;;;;;;;18.65;12.98;;;;;;;11.76;59.52;102925.56;5987745;23;121936;-87
2022/01/24 10:05:39;;;;;;;17.17;12.90;;;;;;;11.78;59.65;102928.72;6034729;23;120226;-89
2022/01/24 10:08:07;;;;;;;18.85;13.73;;;;;;;11.69;60.08;102915.44;6035583;23;120521;-88
2022/01/24 10:10:43;;;;;;;20.27;14.27;;;;;;;11.75;60.21;102917.75;6035510;23;121806;-85
2022/01/24 10:17:02;;;;;;;22.40;14.70;;;;;;;11.83;60.44;102930.28;6060753;23;119931;-87
2022/01/24 10:19:49;;;;;;;18.70;14.10;;;;;;;11.84;61.13;102932.63;6020027;23;120268;-85
2022/01/24 10:22:16;;;;;;;18.95;13.77;;;;;;;11.72;60.23;102913.06;6039363;23;124238;-84
2022/01/24 10:24:48;;;;;;;23.73;15.65;;;;;;;11.77;60.83;102921.66;6035208;23;121890;-85
2022/01/24 10:27:18;;;;;;;19.55;14.70;;;;;;;11.81;60.55;102938.13;6035163;23;120030;-85
2022/01/24 10:29:49;;;;;;;23.73;15.07;;;;;;;11.81;60.25;102932.63;6035416;23;119735;-85
2022/01/24 10:32:28;;;;;;;23.02;16.40;;;;;;;11.83;59.89;102933.00;6035892;23;119717;-85
2022/01/24 10:34:53;;;;;;;21.23;15.93;;;;;;;11.82;59.98;102928.69;6035044;23;122736;-83
2022/01/24 10:37:23;;;;;;;22.85;15.77;;;;;;;11.83;59.91;102927.53;5987725;23;119740;-86
2022/01/24 10:39:58;;;;;;;18.83;15.20;;;;;;;11.82;59.82;102923.19;6035733;23;119622;-87
2022/01/24 10:44:57;;;;;;;22.58;15.20;;;;;;;11.78;59.61;102923.25;6040431;23;120247;-83
2022/01/24 10:47:28;;;;;;;22.25;14.52;;;;;;;11.78;59.84;102916.94;6034587;23;120080;-85
2022/01/24 10:49:55;;;;;;;19.42;15.05;;;;;;;11.82;59.58;102924.00;5988437;23;119854;-86
2022/01/24 10:52:26;;;;;;;22.60;15.95;;;;;;;11.89;61.39;102923.94;6035205;23;121678;-84
2022/01/24 10:55:09;;;;;;;24.77;15.77;;;;;;;11.80;60.32;102898.88;6036302;23;119922;-90
2022/01/24 10:57:35;;;;;;;22.37;15.63;;;;;;;11.92;59.88;102916.84;6037826;23;119677;-88
2022/01/24 11:00:08;;;;;;;25.75;15.68;;;;;;;11.90;59.14;102910.97;6038020;23;119932;-88
2022/01/24 11:02:41;;;;;;;24.90;16.70;;;;;;;11.91;59.00;102918.81;6036787;23;123294;-86
2022/01/24 11:05:13;;;;;;;23.77;16.53;;;;;;;11.91;58.69;102915.28;6037767;23;119842;-88
2022/01/24 11:07:59;;;;;;;24.67;17.08;;;;;;;11.80;59.45;102893.34;6042276;23;122407;-88
2022/01/24 11:10:30;;;;;;;24.15;17.90;;;;;;;11.86;59.96;102896.47;5989420;23;119975;-87
2022/01/24 11:12:56;;;;;;;26.20;19.05;;;;;;;11.92;59.81;102900.34;5989635;23;120959;-87
2022/01/24 11:15:24;;;;;;;27.02;20.13;;;;;;;11.88;59.55;102889.38;6036286;23;123966;-86
2022/01/24 11:17:50;;;;;;;26.58;20.10;;;;;;;11.85;59.28;102878.41;6037808;23;119595;-85
2022/01/24 11:20:20;;;;;;;31.42;21.77;;;;;;;11.92;59.30;102897.59;6037635;23;121879;-85
2022/01/24 11:22:52;;;;;;;28.58;21.50;;;;;;;11.81;60.34;102880.38;6036830;23;120044;-87
2022/01/24 11:25:18;;;;;;;31.50;21.70;;;;;;;11.91;61.60;102890.53;6037900;23;119933;-87
2022/01/24 11:27:47;;;;;;;29.38;22.83;;;;;;;11.89;61.02;102881.91;6013947;23;119775;-86
2022/01/24 11:30:21;;;;;;;31.95;23.27;;;;;;;11.85;60.52;102886.66;6041182;23;123240;-89
2022/01/24 11:32:53;;;;;;;32.60;22.98;;;;;;;11.89;60.28;102887.41;6037510;23;121725;-86
2022/01/24 11:36:00;;;;;;;31.00;22.50;;;;;;;11.84;60.26;102868.59;6060343;23;119868;-88
2022/01/24 11:38:26;;;;;;;32.33;22.45;;;;;;;11.88;60.53;102888.59;5864269;23;120076;-90
2022/01/24 11:40:58;;;;;;;31.55;22.13;;;;;;;11.87;61.19;102873.28;6032465;23;121369;-86
2022/01/24 11:43:26;;;;;;;32.28;23.10;;;;;;;11.79;60.64;102855.28;6036876;23;122986;-88
2022/01/24 11:46:08;;;;;;;33.78;24.33;;;;;;;11.85;59.99;102859.16;6063181;23;119671;-87
2022/01/24 11:48:36;;;;;;;34.35;24.30;;;;;;;11.81;60.17;102861.16;6011392;23;119540;-88
2022/01/24 11:51:12;;;;;;;33.67;24.00;;;;;;;11.79;59.61;102855.28;6041705;23;119818;-87
2022/01/24 11:53:43;;;;;;;34.40;23.55;;;;;;;11.74;59.23;102848.22;5987701;23;122092;-85
2022/01/24 11:56:18;;;;;;;34.33;25.35;;;;;;;11.81;59.40;102861.16;6033400;23;123013;-88
2022/01/24 11:58:44;;;;;;;36.75;25.25;;;;;;;11.79;60.08;102836.03;5988341;23;119857;-86
2022/01/24 12:01:14;;;;;;;35.05;27.08;;;;;;;11.77;60.25;102841.91;6036039;23;119670;-88
2022/01/24 12:03:50;;;;;;;40.97;28.77;;;;;;;11.83;60.69;102847.75;5988051;23;123022;-87
2022/01/24 12:06:19;;;;;;;37.63;26.65;;;;;;;11.83;59.95;102848.56;6034058;23;119934;-88
2022/01/24 12:08:47;;;;;;;37.90;27.15;;;;;;;11.75;60.28;102844.28;6036763;23;120492;-88
2022/01/24 12:11:21;;;;;;;36.00;26.67;;;;;;;11.83;59.79;102861.50;6036738;23;122693;-87
2022/01/24 12:13:53;;;;;;;37.08;27.98;;;;;;;11.82;59.76;102860.72;6043022;23;119681;-88
2022/01/24 12:16:22;;;;;;;36.83;27.88;;;;;;;11.82;59.90;102859.97;6063032;23;120210;-86
2022/01/24 12:18:51;;;;;;;37.50;26.17;;;;;;;11.75;60.03;102840.75;6037272;23;119618;-88
2022/01/24 12:21:23;;;;;;;34.83;26.23;;;;;;;11.77;59.96;102850.16;6013372;23;119619;-88
2022/01/24 12:24:04;;;;;;;37.70;26.42;;;;;;;11.80;59.28;102848.59;5988632;23;121494;-87
2022/01/24 12:26:49;;;;;;;36.03;26.02;;;;;;;11.74;59.46;102836.44;6037973;23;119669;-86
2022/01/24 12:29:26;;;;;;;37.40;26.33;;;;;;;11.81;59.13;102845.44;6037788;23;122253;-88
2022/01/24 12:32:01;;;;;;;38.22;26.30;;;;;;;11.79;58.82;102852.53;6036930;23;122904;-86
2022/01/24 12:34:39;;;;;;;37.97;26.95;;;;;;;11.69;59.04;102841.19;6038027;23;119426;-87
2022/01/24 12:37:12;;;;;;;39.25;27.73;;;;;;;11.73;58.73;102843.91;6041444;23;123205;-88
2022/01/24 12:40:06;;;;;;;38.60;27.73;;;;;;;11.68;59.06;102853.38;6037035;23;120134;-87
2022/01/24 12:48:06;;;;;;;39.35;27.85;;;;;;;11.73;60.86;102841.16;6036427;23;119834;-86
2022/01/24 12:50:31;;;;;;;39.38;27.25;;;;;;;11.72;60.73;102836.84;5983549;23;122141;-87
2022/01/24 12:52:57;;;;;;;38.72;26.98;;;;;;;11.71;61.17;102840.00;6033569;23;121151;-88
2022/01/24 12:55:22;;;;;;;39.72;28.63;;;;;;;11.66;61.06;102827.47;6011929;23;120068;-88
2022/01/24 12:57:48;;;;;;;36.92;26.73;;;;;;;11.69;60.60;102832.16;6038631;23;119439;-89
2022/01/24 13:00:17;;;;;;;41.65;28.45;;;;;;;11.73;60.16;102832.91;6042769;23;122923;-89